createdAt,value
2022-12-04T00:00:58.010Z,0.00
2022-12-04T00:01:58.037Z,0.00
2022-12-04T00:02:58.980Z,0.00
2022-12-04T00:03:58.095Z,0.00
2022-12-04T00:04:58.205Z,0.00
2022-12-04T00:05:58.210Z,0.00
2022-12-04T00:06:59.125Z,0.00
2022-12-04T00:07:58.338Z,0.00
2022-12-04T00:08:58.305Z,0.00
2022-12-04T00:09:58.351Z,0.00
2022-12-04T00:10:58.405Z,0.00
2022-12-04T00:11:58.448Z,0.00
2022-12-04T00:12:58.452Z,0.00
2022-12-04T00:14:04.595Z,0.00
2022-12-04T00:15:24.723Z,0.00
2022-12-04T00:15:58.674Z,0.00
2022-12-04T00:16:58.641Z,0.00
2022-12-04T00:17:58.682Z,0.00
2022-12-04T00:18:58.690Z,0.00
2022-12-04T00:19:58.764Z,0.00
2022-12-04T00:20:58.769Z,0.00
2022-12-04T00:21:59.420Z,0.00
2022-12-04T00:22:58.859Z,0.00
2022-12-04T00:23:58.888Z,0.00
2022-12-04T00:24:58.946Z,0.00
2022-12-04T00:25:58.977Z,0.00
2022-12-04T00:26:59.036Z,0.00
2022-12-04T00:27:59.046Z,0.00
2022-12-04T00:28:59.089Z,0.00
2022-12-04T00:29:59.128Z,0.00
2022-12-04T00:30:59.165Z,0.00
2022-12-04T00:31:59.358Z,0.00
2022-12-04T00:32:59.253Z,0.00
2022-12-04T00:34:00.379Z,0.00
2022-12-04T00:34:59.322Z,0.00
2022-12-04T00:35:59.392Z,0.00
2022-12-04T00:36:59.407Z,0.00
2022-12-04T00:37:59.449Z,0.00
2022-12-04T00:38:59.508Z,0.00
2022-12-04T00:39:59.521Z,0.00
2022-12-04T00:40:59.567Z,0.00
2022-12-04T00:42:00.416Z,0.00
2022-12-04T00:42:59.639Z,0.00
2022-12-04T00:43:59.701Z,0.00
2022-12-04T00:44:59.715Z,0.00
2022-12-04T00:45:59.813Z,0.00
2022-12-04T00:46:59.821Z,0.00
2022-12-04T00:47:59.834Z,0.00
2022-12-04T00:48:59.883Z,0.00
2022-12-04T00:49:59.924Z,0.00
2022-12-04T00:50:59.960Z,0.00
2022-12-04T00:52:00.031Z,0.00
2022-12-04T00:53:00.039Z,0.00
2022-12-04T00:54:00.087Z,0.00
2022-12-04T00:55:00.133Z,0.00
2022-12-04T00:56:00.149Z,0.00
2022-12-04T00:57:00.200Z,0.00
2022-12-04T00:58:00.362Z,0.00
2022-12-04T00:59:00.294Z,0.00
2022-12-04T01:00:00.319Z,0.00
2022-12-04T01:01:00.961Z,0.00
2022-12-04T01:02:00.424Z,0.00
2022-12-04T01:03:00.524Z,0.00
2022-12-04T01:04:00.500Z,0.00
2022-12-04T01:05:00.516Z,0.00
2022-12-04T01:06:00.557Z,0.00
2022-12-04T01:07:04.984Z,0.00
2022-12-04T01:08:00.682Z,0.00
2022-12-04T01:09:00.690Z,0.00
2022-12-04T01:10:00.707Z,0.00
2022-12-04T01:11:01.424Z,0.00
2022-12-04T01:12:00.786Z,0.00
2022-12-04T01:13:00.826Z,0.00
2022-12-04T01:14:00.889Z,0.00
2022-12-04T01:15:00.913Z,0.00
2022-12-04T01:16:00.973Z,0.00
2022-12-04T01:17:01.078Z,0.00
2022-12-04T01:18:01.029Z,0.00
2022-12-04T01:19:01.067Z,0.00
2022-12-04T01:20:01.117Z,0.00
2022-12-04T01:21:01.142Z,0.00
2022-12-04T01:22:01.215Z,0.00
2022-12-04T01:23:01.224Z,0.00
2022-12-04T01:24:01.272Z,0.00
2022-12-04T01:25:01.346Z,0.00
2022-12-04T01:26:01.343Z,0.00
2022-12-04T01:27:01.386Z,0.00
2022-12-04T01:28:01.428Z,0.00
2022-12-04T01:29:01.473Z,0.00
2022-12-04T01:30:01.544Z,0.00
2022-12-04T01:31:02.423Z,0.00
2022-12-04T01:32:01.650Z,0.00
2022-12-04T01:33:01.631Z,0.00
2022-12-04T01:34:01.678Z,0.00
2022-12-04T01:35:01.739Z,0.00
2022-12-04T01:36:01.742Z,0.00
2022-12-04T01:37:01.783Z,0.00
2022-12-04T01:38:01.861Z,0.00
2022-12-04T01:39:01.872Z,0.00
2022-12-04T01:40:01.903Z,0.00
2022-12-04T01:41:02.919Z,0.00
2022-12-04T01:42:02.014Z,0.00
2022-12-04T01:43:02.025Z,0.00
2022-12-04T01:44:02.072Z,0.00
2022-12-04T01:45:02.104Z,0.00
2022-12-04T01:46:02.207Z,0.00
2022-12-04T01:47:02.221Z,0.00
2022-12-04T01:48:02.229Z,0.00
2022-12-04T01:49:02.272Z,0.00
2022-12-04T01:50:02.312Z,0.00
2022-12-04T01:51:02.346Z,0.00
2022-12-04T01:52:02.424Z,0.00
2022-12-04T01:53:02.434Z,0.00
2022-12-04T01:54:02.477Z,0.00
2022-12-04T01:55:02.512Z,0.00
2022-12-04T01:56:02.555Z,0.00
2022-12-04T01:57:02.617Z,0.00
2022-12-04T01:58:02.669Z,0.00
2022-12-04T01:59:02.670Z,0.00
2022-12-04T02:00:03.423Z,0.00
2022-12-04T02:01:08.232Z,0.00
2022-12-04T02:02:02.906Z,0.00
2022-12-04T02:03:02.941Z,0.00
2022-12-04T02:04:02.878Z,0.00
2022-12-04T02:05:02.920Z,0.00
2022-12-04T02:06:02.949Z,0.00
2022-12-04T02:07:02.999Z,0.00
2022-12-04T02:08:03.091Z,0.00
2022-12-04T02:09:03.106Z,0.00
2022-12-04T02:10:03.110Z,0.00
2022-12-04T02:11:03.151Z,0.00
2022-12-04T02:12:03.200Z,0.00
2022-12-04T02:13:03.241Z,0.00
2022-12-04T02:14:03.294Z,0.00
2022-12-04T02:15:03.322Z,0.00
2022-12-04T02:16:03.358Z,0.00
2022-12-04T02:17:03.493Z,0.00
2022-12-04T02:18:03.469Z,0.00
2022-12-04T02:19:03.477Z,0.00
2022-12-04T02:20:03.527Z,0.00
2022-12-04T02:21:03.582Z,0.00
2022-12-04T02:22:03.605Z,0.00
2022-12-04T02:23:03.639Z,0.00
2022-12-04T02:24:03.690Z,0.00
2022-12-04T02:25:03.725Z,0.00
2022-12-04T02:26:03.790Z,0.00
2022-12-04T02:27:03.833Z,0.00
2022-12-04T02:28:03.848Z,0.00
2022-12-04T02:29:03.881Z,0.00
2022-12-04T02:30:03.929Z,0.00
2022-12-04T02:31:03.986Z,0.00
2022-12-04T02:32:04.031Z,0.00
2022-12-04T02:33:04.043Z,0.00
2022-12-04T02:34:04.093Z,0.00
2022-12-04T02:35:04.134Z,0.00
2022-12-04T02:36:04.170Z,0.00
2022-12-04T02:37:04.227Z,0.00
2022-12-04T02:38:04.263Z,0.00
2022-12-04T02:39:04.930Z,0.00
2022-12-04T02:40:04.346Z,0.00
2022-12-04T02:41:04.376Z,0.00
2022-12-04T02:42:04.444Z,0.00
2022-12-04T02:43:04.445Z,0.00
2022-12-04T02:44:04.486Z,0.00
2022-12-04T02:45:04.531Z,0.00
2022-12-04T02:46:04.638Z,0.00
2022-12-04T02:47:04.634Z,0.00
2022-12-04T02:48:04.652Z,0.00
2022-12-04T02:49:05.431Z,0.00
2022-12-04T02:50:04.766Z,0.00
2022-12-04T02:51:04.779Z,0.00
2022-12-04T02:52:04.813Z,0.00
2022-12-04T02:53:04.851Z,0.00
2022-12-04T02:54:05.126Z,0.00
2022-12-04T02:55:08.339Z,0.00
2022-12-04T02:56:04.976Z,0.00
2022-12-04T02:57:05.055Z,0.00
2022-12-04T02:58:05.065Z,0.00
2022-12-04T02:59:05.099Z,0.00
2022-12-04T03:00:05.174Z,0.00
2022-12-04T03:01:05.194Z,0.00
2022-12-04T03:02:05.277Z,0.00
2022-12-04T03:03:05.266Z,0.00
2022-12-04T03:04:05.301Z,0.00
2022-12-04T03:05:05.370Z,0.00
2022-12-04T03:06:05.391Z,0.00
2022-12-04T03:07:05.929Z,0.00
2022-12-04T03:08:05.580Z,0.00
2022-12-04T03:09:05.511Z,0.00
2022-12-04T03:10:05.577Z,0.00
2022-12-04T03:11:06.422Z,0.00
2022-12-04T03:12:05.638Z,0.00
2022-12-04T03:13:05.674Z,0.00
2022-12-04T03:14:05.706Z,0.00
2022-12-04T03:15:05.785Z,0.00
2022-12-04T03:16:06.421Z,0.00
2022-12-04T03:17:05.901Z,0.00
2022-12-04T03:18:05.882Z,0.00
2022-12-04T03:19:05.922Z,0.00
2022-12-04T03:20:05.986Z,0.00
2022-12-04T03:21:06.010Z,0.00
2022-12-04T03:22:06.034Z,0.00
2022-12-04T03:23:06.087Z,0.00
2022-12-04T03:24:06.147Z,0.00
2022-12-04T03:25:06.934Z,0.00
2022-12-04T03:26:06.209Z,0.00
2022-12-04T03:27:06.246Z,0.00
2022-12-04T03:28:06.311Z,0.00
2022-12-04T03:29:06.322Z,0.00
2022-12-04T03:30:06.364Z,0.00
2022-12-04T03:31:06.499Z,0.00
2022-12-04T03:32:06.448Z,0.00
2022-12-04T03:33:06.519Z,0.00
2022-12-04T03:34:07.429Z,0.00
2022-12-04T03:35:06.591Z,0.00
2022-12-04T03:36:06.605Z,0.00
2022-12-04T03:37:06.661Z,0.00
2022-12-04T03:38:06.695Z,0.00
2022-12-04T03:39:06.730Z,0.00
2022-12-04T03:40:06.808Z,0.00
2022-12-04T03:41:06.810Z,0.00
2022-12-04T03:42:06.881Z,0.00
2022-12-04T03:43:06.892Z,0.00
2022-12-04T03:44:06.932Z,0.00
2022-12-04T03:45:07.005Z,0.00
2022-12-04T03:46:07.095Z,0.00
2022-12-04T03:47:07.082Z,0.00
2022-12-04T03:48:07.104Z,0.00
2022-12-04T03:49:07.143Z,0.00
2022-12-04T03:50:07.212Z,0.00
2022-12-04T03:51:07.219Z,0.00
2022-12-04T03:52:07.265Z,0.00
2022-12-04T03:53:07.300Z,0.00
2022-12-04T03:54:07.345Z,0.00
2022-12-04T03:55:07.414Z,0.00
2022-12-04T03:56:07.422Z,0.00
2022-12-04T03:57:07.463Z,0.00
2022-12-04T03:58:07.510Z,0.00
2022-12-04T03:59:07.582Z,0.00
2022-12-04T04:00:07.590Z,0.00
2022-12-04T04:01:08.480Z,0.00
2022-12-04T04:02:07.805Z,0.00
2022-12-04T04:03:07.863Z,0.00
2022-12-04T04:04:07.765Z,0.00
2022-12-04T04:05:07.829Z,0.00
2022-12-04T04:06:07.835Z,0.00
2022-12-04T04:07:07.872Z,0.00
2022-12-04T04:08:07.994Z,0.00
2022-12-04T04:09:07.958Z,0.00
2022-12-04T04:10:08.023Z,0.00
2022-12-04T04:11:08.041Z,0.00
2022-12-04T04:12:08.087Z,0.00
2022-12-04T04:13:08.128Z,0.00
2022-12-04T04:14:08.166Z,0.00
2022-12-04T04:15:08.226Z,0.00
2022-12-04T04:16:08.274Z,0.00
2022-12-04T04:17:08.289Z,0.00
2022-12-04T04:18:08.321Z,0.00
2022-12-04T04:19:08.371Z,0.00
2022-12-04T04:20:08.445Z,0.00
2022-12-04T04:21:08.483Z,0.00
2022-12-04T04:22:08.486Z,0.00
2022-12-04T04:23:08.533Z,0.00
2022-12-04T04:24:08.573Z,0.00
2022-12-04T04:25:08.616Z,0.00
2022-12-04T04:26:08.680Z,0.00
2022-12-04T04:27:08.717Z,0.00
2022-12-04T04:28:08.736Z,0.00
2022-12-04T04:29:08.770Z,0.00
2022-12-04T04:30:08.824Z,0.00
2022-12-04T04:31:08.898Z,0.00
2022-12-04T04:32:08.915Z,0.00
2022-12-04T04:33:08.933Z,0.00
2022-12-04T04:34:08.982Z,0.00
2022-12-04T04:35:09.023Z,0.00
2022-12-04T04:36:09.065Z,0.00
2022-12-04T04:37:09.130Z,0.00
2022-12-04T04:38:09.146Z,0.00
2022-12-04T04:39:09.178Z,0.00
2022-12-04T04:40:09.229Z,0.00
2022-12-04T04:41:09.260Z,0.00
2022-12-04T04:42:09.322Z,0.00
2022-12-04T04:43:09.377Z,0.00
2022-12-04T04:44:09.418Z,0.00
2022-12-04T04:45:09.435Z,0.00
2022-12-04T04:46:09.580Z,0.00
2022-12-04T04:47:09.503Z,0.00
2022-12-04T04:48:09.561Z,0.00
2022-12-04T04:49:09.617Z,0.00
2022-12-04T04:50:09.627Z,0.00
2022-12-04T04:51:09.677Z,0.00
2022-12-04T04:52:09.717Z,0.00
2022-12-04T04:53:09.759Z,0.00
2022-12-04T04:54:09.822Z,0.00
2022-12-04T04:55:09.849Z,0.00
2022-12-04T04:56:09.873Z,0.00
2022-12-04T04:57:09.921Z,0.00
2022-12-04T04:58:09.953Z,0.00
2022-12-04T04:59:10.028Z,0.00
2022-12-04T05:00:10.036Z,0.00
2022-12-04T05:01:10.083Z,0.00
2022-12-04T05:02:10.153Z,0.00
2022-12-04T05:03:10.331Z,0.00
2022-12-04T05:04:10.236Z,0.00
2022-12-04T05:05:10.248Z,0.00
2022-12-04T05:06:10.291Z,0.00
2022-12-04T05:07:10.334Z,0.00
2022-12-04T05:08:10.431Z,0.00
2022-12-04T05:09:10.411Z,0.00
2022-12-04T05:10:10.443Z,0.00
2022-12-04T05:11:10.518Z,0.00
2022-12-04T05:12:10.535Z,0.00
2022-12-04T05:13:10.567Z,0.00
2022-12-04T05:14:10.610Z,0.00
2022-12-04T05:15:10.672Z,0.00
2022-12-04T05:16:10.779Z,0.00
2022-12-04T05:17:12.720Z,0.00
2022-12-04T05:18:10.782Z,0.00
2022-12-04T05:19:10.848Z,0.00
2022-12-04T05:20:10.860Z,0.00
2022-12-04T05:21:10.924Z,0.00
2022-12-04T05:22:10.932Z,0.00
2022-12-04T05:23:10.983Z,0.00
2022-12-04T05:24:11.014Z,0.00
2022-12-04T05:25:11.093Z,0.00
2022-12-04T05:26:11.098Z,0.00
2022-12-04T05:27:11.163Z,0.00
2022-12-04T05:28:11.187Z,0.00
2022-12-04T05:29:11.219Z,0.00
2022-12-04T05:30:11.270Z,0.00
2022-12-04T05:31:11.376Z,0.00
2022-12-04T05:32:11.348Z,0.00
2022-12-04T05:33:11.392Z,0.00
2022-12-04T05:34:11.445Z,0.00
2022-12-04T05:35:11.870Z,0.00
2022-12-04T05:36:11.503Z,0.00
2022-12-04T05:37:12.438Z,0.00
2022-12-04T05:38:11.595Z,0.00
2022-12-04T05:39:11.625Z,0.00
2022-12-04T05:40:11.690Z,0.00
2022-12-04T05:41:11.708Z,0.00
2022-12-04T05:42:11.754Z,0.00
2022-12-04T05:43:11.801Z,0.00
2022-12-04T05:44:11.853Z,0.00
2022-12-04T05:45:11.878Z,0.00
2022-12-04T05:46:11.953Z,0.00
2022-12-04T05:47:11.987Z,0.00
2022-12-04T05:48:12.002Z,0.00
2022-12-04T05:49:12.037Z,0.00
2022-12-04T05:50:12.089Z,0.00
2022-12-04T05:51:12.118Z,0.00
2022-12-04T05:52:12.183Z,0.00
2022-12-04T05:53:12.206Z,0.00
2022-12-04T05:54:12.265Z,0.00
2022-12-04T05:55:12.281Z,0.00
2022-12-04T05:56:12.349Z,0.00
2022-12-04T05:57:12.371Z,0.00
2022-12-04T05:58:12.418Z,0.00
2022-12-04T05:59:12.451Z,0.00
2022-12-04T06:00:13.429Z,0.00
2022-12-04T06:01:12.566Z,0.00
2022-12-04T06:02:12.708Z,0.00
2022-12-04T06:03:12.655Z,0.00
2022-12-04T06:04:12.650Z,0.00
2022-12-04T06:05:12.713Z,0.00
2022-12-04T06:06:17.518Z,0.00
2022-12-04T06:07:12.773Z,0.00
2022-12-04T06:08:12.897Z,0.00
2022-12-04T06:09:12.852Z,0.00
2022-12-04T06:10:12.915Z,0.00
2022-12-04T06:11:12.944Z,0.00
2022-12-04T06:12:13.002Z,0.00
2022-12-04T06:13:13.017Z,0.00
2022-12-04T06:14:13.067Z,0.00
2022-12-04T06:15:13.124Z,0.00
2022-12-04T06:16:13.171Z,0.00
2022-12-04T06:17:13.187Z,0.00
2022-12-04T06:18:13.219Z,0.00
2022-12-04T06:19:13.269Z,0.00
2022-12-04T06:20:13.425Z,0.00
2022-12-04T06:21:13.344Z,0.00
2022-12-04T06:22:13.383Z,0.00
2022-12-04T06:23:13.434Z,0.00
2022-12-04T06:24:13.471Z,0.00
2022-12-04T06:25:13.535Z,0.00
2022-12-04T06:26:13.550Z,0.00
2022-12-04T06:27:29.120Z,0.00
2022-12-04T06:28:13.630Z,0.00
2022-12-04T06:29:13.679Z,0.00
2022-12-04T06:30:13.722Z,0.00
2022-12-04T06:31:13.848Z,0.00
2022-12-04T06:32:19.517Z,0.00
2022-12-04T06:33:13.844Z,0.00
2022-12-04T06:34:13.875Z,0.00
2022-12-04T06:35:14.437Z,0.00
2022-12-04T06:36:13.956Z,0.00
2022-12-04T06:37:14.034Z,0.00
2022-12-04T06:38:14.043Z,0.00
2022-12-04T06:39:18.513Z,0.00
2022-12-04T06:40:14.122Z,0.00
2022-12-04T06:41:14.933Z,0.00
2022-12-04T06:42:14.226Z,0.00
2022-12-04T06:43:14.249Z,0.00
2022-12-04T06:44:14.356Z,0.00
2022-12-04T06:45:14.335Z,0.00
2022-12-04T06:46:14.403Z,0.00
2022-12-04T06:47:14.419Z,0.00
2022-12-04T06:48:14.455Z,0.00
2022-12-04T06:49:14.547Z,0.00
2022-12-04T06:50:14.531Z,0.00
2022-12-04T06:51:14.605Z,0.00
2022-12-04T06:52:15.444Z,0.00
2022-12-04T06:53:14.659Z,0.00
2022-12-04T06:54:14.705Z,0.00
2022-12-04T06:55:14.768Z,0.00
2022-12-04T06:56:14.809Z,0.00
2022-12-04T06:57:14.821Z,0.00
2022-12-04T06:58:14.874Z,0.00
2022-12-04T06:59:14.909Z,0.00
2022-12-04T07:00:14.995Z,0.00
2022-12-04T07:01:15.010Z,0.00
2022-12-04T07:02:15.072Z,0.00
2022-12-04T07:03:15.064Z,0.00
2022-12-04T07:04:15.942Z,0.00
2022-12-04T07:05:15.179Z,0.00
2022-12-04T07:06:15.194Z,0.00
2022-12-04T07:07:15.232Z,0.00
2022-12-04T07:08:15.303Z,0.00
2022-12-04T07:09:15.952Z,0.00
2022-12-04T07:10:15.376Z,0.00
2022-12-04T07:11:15.413Z,0.00
2022-12-04T07:12:15.464Z,0.00
2022-12-04T07:13:15.476Z,0.00
2022-12-04T07:14:15.532Z,0.00
2022-12-04T07:15:15.560Z,0.00
2022-12-04T07:16:15.660Z,5.63
2022-12-04T07:17:15.735Z,5.63
2022-12-04T07:18:15.695Z,5.63
2022-12-04T07:19:15.741Z,5.63
2022-12-04T07:20:15.770Z,5.63
2022-12-04T07:21:16.440Z,5.63
2022-12-04T07:22:15.881Z,5.63
2022-12-04T07:23:15.898Z,5.63
2022-12-04T07:24:15.931Z,5.63
2022-12-04T07:25:15.987Z,5.63
2022-12-04T07:26:16.016Z,5.63
2022-12-04T07:27:16.087Z,5.63
2022-12-04T07:28:16.104Z,5.63
2022-12-04T07:29:16.147Z,5.63
2022-12-04T07:30:16.301Z,5.63
2022-12-04T07:31:16.232Z,5.63
2022-12-04T07:32:16.358Z,5.63
2022-12-04T07:33:16.942Z,5.63
2022-12-04T07:34:16.343Z,5.63
2022-12-04T07:35:16.423Z,5.63
2022-12-04T07:36:16.437Z,5.63
2022-12-04T07:37:16.469Z,5.63
2022-12-04T07:38:16.513Z,5.63
2022-12-04T07:39:16.551Z,5.63
2022-12-04T07:40:16.606Z,5.63
2022-12-04T07:41:16.634Z,5.63
2022-12-04T07:42:22.552Z,5.63
2022-12-04T07:43:16.723Z,5.63
2022-12-04T07:44:16.757Z,5.63
2022-12-04T07:45:16.791Z,5.63
2022-12-04T07:46:16.918Z,5.63
2022-12-04T07:47:16.905Z,5.63
2022-12-04T07:48:16.929Z,5.63
2022-12-04T07:49:16.959Z,5.63
2022-12-04T07:50:17.011Z,5.63
2022-12-04T07:51:17.034Z,5.63
2022-12-04T07:52:17.111Z,5.63
2022-12-04T07:53:17.126Z,5.63
2022-12-04T07:54:17.190Z,5.63
2022-12-04T07:55:22.811Z,5.63
2022-12-04T07:56:17.249Z,5.63
2022-12-04T07:57:17.284Z,5.63
2022-12-04T07:58:17.318Z,5.63
2022-12-04T07:59:17.392Z,5.63
2022-12-04T08:00:17.410Z,5.63
2022-12-04T08:01:17.528Z,5.63
2022-12-04T08:02:18.443Z,5.63
2022-12-04T08:03:17.529Z,5.63
2022-12-04T08:04:17.621Z,5.63
2022-12-04T08:05:17.610Z,5.63
2022-12-04T08:06:17.661Z,5.63
2022-12-04T08:07:17.690Z,5.63
2022-12-04T08:08:18.550Z,5.63
2022-12-04T08:09:17.796Z,5.63
2022-12-04T08:10:17.806Z,5.63
2022-12-04T08:11:17.857Z,5.63
2022-12-04T08:12:17.920Z,5.63
2022-12-04T08:13:17.930Z,5.63
2022-12-04T08:14:17.981Z,5.63
2022-12-04T08:15:18.011Z,5.63
2022-12-04T08:16:18.113Z,5.63
2022-12-04T08:17:18.154Z,11.25
2022-12-04T08:18:18.155Z,11.25
2022-12-04T08:19:18.179Z,11.25
2022-12-04T08:20:18.251Z,11.25
2022-12-04T08:21:18.257Z,11.25
2022-12-04T08:22:23.439Z,11.25
2022-12-04T08:23:18.347Z,11.25
2022-12-04T08:24:18.377Z,11.25
2022-12-04T08:25:18.458Z,11.25
2022-12-04T08:26:18.466Z,11.25
2022-12-04T08:27:18.510Z,11.25
2022-12-04T08:28:18.542Z,11.25
2022-12-04T08:29:18.588Z,11.25
2022-12-04T08:30:18.657Z,11.25
2022-12-04T08:31:19.608Z,11.25
2022-12-04T08:32:18.708Z,11.25
2022-12-04T08:33:18.753Z,11.25
2022-12-04T08:34:18.784Z,11.25
2022-12-04T08:35:18.860Z,11.25
2022-12-04T08:36:18.874Z,11.25
2022-12-04T08:37:19.449Z,11.25
2022-12-04T08:38:18.950Z,16.88
2022-12-04T08:39:18.991Z,16.88
2022-12-04T08:40:19.064Z,16.88
2022-12-04T08:41:20.134Z,16.88
2022-12-04T08:42:19.117Z,16.88
2022-12-04T08:43:19.947Z,16.88
2022-12-04T08:44:19.199Z,16.88
2022-12-04T08:45:19.260Z,16.88
2022-12-04T08:46:19.309Z,16.88
2022-12-04T08:47:19.320Z,16.88
2022-12-04T08:48:19.362Z,16.88
2022-12-04T08:49:19.569Z,16.88
2022-12-04T08:50:19.446Z,16.88
2022-12-04T08:51:19.497Z,16.88
2022-12-04T08:52:19.572Z,16.88
2022-12-04T08:53:19.573Z,16.88
2022-12-04T08:54:19.611Z,16.88
2022-12-04T08:55:19.669Z,16.88
2022-12-04T08:56:19.691Z,16.88
2022-12-04T08:57:19.733Z,16.88
2022-12-04T08:58:20.449Z,16.88
2022-12-04T08:59:19.844Z,16.88
2022-12-04T09:00:19.858Z,16.88
2022-12-04T09:01:19.964Z,16.88
2022-12-04T09:02:19.933Z,16.88
2022-12-04T09:03:21.057Z,16.88
2022-12-04T09:04:20.123Z,16.88
2022-12-04T09:05:20.054Z,16.88
2022-12-04T09:06:20.949Z,16.88
2022-12-04T09:07:20.133Z,16.88
2022-12-04T09:08:20.208Z,16.88
2022-12-04T09:09:20.244Z,16.88
2022-12-04T09:10:20.268Z,16.88
2022-12-04T09:11:20.305Z,16.88
2022-12-04T09:12:20.401Z,16.88
2022-12-04T09:13:20.421Z,16.88
2022-12-04T09:14:20.480Z,16.88
2022-12-04T09:15:20.472Z,16.88
2022-12-04T09:16:20.569Z,16.88
2022-12-04T09:17:20.565Z,16.88
2022-12-04T09:18:20.602Z,16.88
2022-12-04T09:19:20.688Z,16.88
2022-12-04T09:20:20.686Z,22.50
2022-12-04T09:21:21.462Z,22.50
2022-12-04T09:22:20.779Z,22.50
2022-12-04T09:23:21.458Z,22.50
2022-12-04T09:24:20.977Z,22.50
2022-12-04T09:25:20.897Z,22.50
2022-12-04T09:26:20.926Z,22.50
2022-12-04T09:27:20.955Z,28.13
2022-12-04T09:28:20.996Z,28.13
2022-12-04T09:29:21.061Z,33.75
2022-12-04T09:30:21.107Z,33.75
2022-12-04T09:31:21.245Z,33.75
2022-12-04T09:32:21.175Z,33.75
2022-12-04T09:33:21.207Z,33.75
2022-12-04T09:34:21.254Z,33.75
2022-12-04T09:35:21.296Z,33.75
2022-12-04T09:36:21.369Z,33.75
2022-12-04T09:37:21.366Z,33.75
2022-12-04T09:38:21.415Z,33.75
2022-12-04T09:39:21.460Z,33.75
2022-12-04T09:40:21.484Z,33.75
2022-12-04T09:41:21.557Z,33.75
2022-12-04T09:42:21.583Z,39.38
2022-12-04T09:43:21.628Z,39.38
2022-12-04T09:44:21.653Z,45.00
2022-12-04T09:45:21.702Z,45.00
2022-12-04T09:46:21.818Z,39.38
2022-12-04T09:47:21.817Z,39.38
2022-12-04T09:48:21.830Z,39.38
2022-12-04T09:49:21.856Z,39.38
2022-12-04T09:50:21.919Z,39.38
2022-12-04T09:51:21.972Z,39.38
2022-12-04T09:52:22.246Z,45.00
2022-12-04T09:53:22.034Z,45.00
2022-12-04T09:54:22.066Z,45.00
2022-12-04T09:55:22.114Z,45.00
2022-12-04T09:56:22.183Z,45.00
2022-12-04T09:57:22.193Z,39.38
2022-12-04T09:58:22.266Z,45.00
2022-12-04T09:59:22.293Z,45.00
2022-12-04T10:00:22.316Z,50.63
2022-12-04T10:01:22.399Z,50.63
2022-12-04T10:02:22.521Z,50.63
2022-12-04T10:03:22.687Z,50.63
2022-12-04T10:04:22.564Z,50.63
2022-12-04T10:05:22.529Z,50.63
2022-12-04T10:06:22.569Z,50.63
2022-12-04T10:07:22.619Z,50.63
2022-12-04T10:08:22.766Z,50.63
2022-12-04T10:09:22.705Z,50.63
2022-12-04T10:10:22.757Z,50.63
2022-12-04T10:11:23.956Z,56.25
2022-12-04T10:12:22.816Z,56.25
2022-12-04T10:13:22.882Z,56.25
2022-12-04T10:14:22.890Z,56.25
2022-12-04T10:15:22.947Z,56.25
2022-12-04T10:16:23.012Z,56.25
2022-12-04T10:17:25.485Z,56.25
2022-12-04T10:18:23.077Z,56.25
2022-12-04T10:19:23.098Z,56.25
2022-12-04T10:20:23.197Z,56.25
2022-12-04T10:21:23.211Z,56.25
2022-12-04T10:22:23.248Z,56.25
2022-12-04T10:23:23.269Z,56.25
2022-12-04T10:24:23.327Z,56.25
2022-12-04T10:25:23.359Z,56.25
2022-12-04T10:26:23.418Z,61.88
2022-12-04T10:27:23.441Z,61.88
2022-12-04T10:28:23.478Z,61.88
2022-12-04T10:29:23.527Z,56.25
2022-12-04T10:30:23.677Z,56.25
2022-12-04T10:31:23.695Z,56.25
2022-12-04T10:32:23.639Z,56.25
2022-12-04T10:33:23.690Z,56.25
2022-12-04T10:34:23.720Z,56.25
2022-12-04T10:35:23.775Z,50.63
2022-12-04T10:36:23.824Z,50.63
2022-12-04T10:37:23.877Z,50.63
2022-12-04T10:38:23.894Z,50.63
2022-12-04T10:39:23.964Z,50.63
2022-12-04T10:40:23.981Z,50.63
2022-12-04T10:41:24.015Z,56.25
2022-12-04T10:42:24.088Z,56.25
2022-12-04T10:43:24.957Z,56.25
2022-12-04T10:44:24.145Z,56.25
2022-12-04T10:45:24.217Z,50.63
2022-12-04T10:46:24.297Z,50.63
2022-12-04T10:47:24.277Z,50.63
2022-12-04T10:48:24.316Z,56.25
2022-12-04T10:49:24.354Z,56.25
2022-12-04T10:50:24.416Z,56.25
2022-12-04T10:51:24.457Z,56.25
2022-12-04T10:52:24.485Z,56.25
2022-12-04T10:53:24.533Z,56.25
2022-12-04T10:54:24.570Z,56.25
2022-12-04T10:55:24.625Z,56.25
2022-12-04T10:56:24.659Z,56.25
2022-12-04T10:57:24.694Z,56.25
2022-12-04T10:58:24.734Z,56.25
2022-12-04T10:59:24.797Z,56.25
2022-12-04T11:00:24.830Z,56.25
2022-12-04T11:01:24.950Z,56.25
2022-12-04T11:02:24.964Z,56.25
2022-12-04T11:03:25.034Z,56.25
2022-12-04T11:04:24.988Z,56.25
2022-12-04T11:05:25.040Z,56.25
2022-12-04T11:06:25.093Z,56.25
2022-12-04T11:07:25.111Z,50.63
2022-12-04T11:08:25.218Z,50.63
2022-12-04T11:09:25.199Z,50.63
2022-12-04T11:10:25.240Z,50.63
2022-12-04T11:11:25.308Z,50.63
2022-12-04T11:12:25.322Z,50.63
2022-12-04T11:13:25.368Z,50.63
2022-12-04T11:14:25.966Z,45.00
2022-12-04T11:15:25.436Z,45.00
2022-12-04T11:16:25.553Z,39.38
2022-12-04T11:17:25.526Z,39.38
2022-12-04T11:18:25.566Z,33.75
2022-12-04T11:19:25.613Z,33.75
2022-12-04T11:20:25.674Z,33.75
2022-12-04T11:21:25.694Z,33.75
2022-12-04T11:22:25.741Z,33.75
2022-12-04T11:23:25.804Z,28.13
2022-12-04T11:24:25.816Z,28.13
2022-12-04T11:25:25.866Z,28.13
2022-12-04T11:26:25.893Z,28.13
2022-12-04T11:27:25.934Z,28.13
2022-12-04T11:28:41.211Z,28.13
2022-12-04T11:29:26.019Z,28.13
2022-12-04T11:30:26.092Z,28.13
2022-12-04T11:31:26.193Z,28.13
2022-12-04T11:32:26.154Z,28.13
2022-12-04T11:33:26.192Z,28.13
2022-12-04T11:34:26.236Z,28.13
2022-12-04T11:35:26.302Z,28.13
2022-12-04T11:36:26.322Z,28.13
2022-12-04T11:37:26.365Z,28.13
2022-12-04T11:38:26.399Z,33.75
2022-12-04T11:39:26.468Z,33.75
2022-12-04T11:40:26.479Z,33.75
2022-12-04T11:41:26.556Z,33.75
2022-12-04T11:42:26.574Z,33.75
2022-12-04T11:43:26.608Z,39.38
2022-12-04T11:44:26.651Z,39.38
2022-12-04T11:45:27.469Z,39.38
2022-12-04T11:46:26.840Z,45.00
2022-12-04T11:47:26.787Z,45.00
2022-12-04T11:48:26.832Z,45.00
2022-12-04T11:49:26.892Z,45.00
2022-12-04T11:50:26.896Z,45.00
2022-12-04T11:51:26.969Z,50.63
2022-12-04T11:52:27.074Z,50.63
2022-12-04T11:53:27.019Z,50.63
2022-12-04T11:54:27.055Z,50.63
2022-12-04T11:55:29.211Z,50.63
2022-12-04T11:56:27.190Z,50.63
2022-12-04T11:57:27.219Z,50.63
2022-12-04T11:58:27.237Z,50.63
2022-12-04T11:59:27.270Z,50.63
2022-12-04T12:00:27.304Z,50.63
2022-12-04T12:01:27.377Z,50.63
2022-12-04T12:02:27.506Z,50.63
2022-12-04T12:03:27.611Z,50.63
2022-12-04T12:04:27.509Z,50.63
2022-12-04T12:05:28.460Z,50.63
2022-12-04T12:06:27.550Z,50.63
2022-12-04T12:07:27.637Z,50.63
2022-12-04T12:08:27.645Z,56.25
2022-12-04T12:09:27.705Z,56.25
2022-12-04T12:10:27.731Z,56.25
2022-12-04T12:11:27.764Z,61.88
2022-12-04T12:12:27.811Z,73.13
2022-12-04T12:13:27.877Z,73.13
2022-12-04T12:14:27.947Z,73.13
2022-12-04T12:15:28.478Z,67.50
2022-12-04T12:16:28.050Z,61.88
2022-12-04T12:26:56.548Z,56.25
2022-12-04T12:27:57.179Z,56.25
2022-12-04T12:28:56.568Z,56.25
2022-12-04T12:29:56.726Z,56.25
2022-12-04T12:30:59.010Z,56.25
2022-12-04T12:31:56.793Z,61.88
2022-12-04T12:33:03.787Z,61.88
2022-12-04T12:33:57.674Z,56.25
2022-12-04T12:34:57.680Z,56.25
2022-12-04T12:35:56.857Z,56.25
2022-12-04T12:37:00.924Z,50.63
2022-12-04T12:37:56.931Z,50.63
2022-12-04T12:38:56.969Z,45.00
2022-12-04T12:39:57.097Z,45.00
2022-12-04T12:40:57.684Z,45.00
2022-12-04T12:41:57.135Z,45.00
2022-12-04T12:42:58.705Z,45.00
2022-12-04T12:43:57.185Z,45.00
2022-12-04T12:44:57.227Z,45.00
2022-12-04T12:45:58.210Z,45.00
2022-12-04T12:46:57.325Z,45.00
2022-12-04T12:47:57.354Z,45.00
2022-12-04T12:48:58.692Z,45.00
2022-12-04T12:49:57.803Z,45.00
2022-12-04T12:51:22.259Z,45.00
2022-12-04T12:51:57.515Z,45.00
2022-12-04T12:52:58.219Z,45.00
2022-12-04T12:53:58.205Z,39.38
2022-12-04T12:54:57.711Z,39.38
2022-12-04T12:55:57.735Z,39.38
2022-12-04T12:56:57.744Z,33.75
2022-12-04T12:57:58.683Z,33.75
2022-12-04T12:58:58.710Z,33.75
2022-12-04T12:59:58.110Z,33.75
2022-12-04T13:00:57.923Z,33.75
2022-12-04T13:02:01.062Z,33.75
2022-12-04T13:02:58.517Z,33.75
2022-12-04T13:03:58.400Z,28.13
2022-12-04T13:04:58.918Z,28.13
2022-12-04T13:05:58.669Z,28.13
2022-12-04T13:06:58.218Z,22.50
2022-12-04T13:07:58.263Z,28.13
2022-12-04T13:08:59.213Z,28.13
2022-12-04T13:09:58.542Z,28.13
2022-12-04T13:10:59.170Z,28.13
2022-12-04T13:11:59.173Z,28.13
2022-12-04T13:12:58.413Z,22.50
2022-12-04T13:13:58.429Z,22.50
2022-12-04T13:14:59.189Z,22.50
2022-12-04T13:15:59.191Z,22.50
2022-12-04T13:16:58.652Z,22.50
2022-12-04T13:17:58.643Z,22.50
2022-12-04T13:18:59.171Z,22.50